createdAt,value
2018-11-28T00:01:27.653Z,5.60
2018-11-28T00:03:55.788Z,5.59
2018-11-28T00:06:23.935Z,5.60
2018-11-28T00:08:52.080Z,5.59
2018-11-28T00:11:20.262Z,5.58
2018-11-28T00:13:48.412Z,5.55
2018-11-28T00:16:16.591Z,5.58
2018-11-28T00:18:44.725Z,5.59
2018-11-28T00:21:12.885Z,5.59
2018-11-28T00:23:41.067Z,5.60
2018-11-28T00:26:09.230Z,5.61
2018-11-28T00:28:37.369Z,5.60
2018-11-28T00:31:05.560Z,5.59
2018-11-28T00:33:33.725Z,5.61
2018-11-28T00:36:01.873Z,5.61
2018-11-28T00:38:30.007Z,5.57
2018-11-28T00:40:58.144Z,5.57
2018-11-28T00:43:26.296Z,5.58
2018-11-28T00:45:54.470Z,5.58
2018-11-28T00:48:22.627Z,5.60
2018-11-28T00:50:50.778Z,5.60
2018-11-28T00:53:18.945Z,5.59
2018-11-28T00:55:48.548Z,5.63
2018-11-28T00:58:15.248Z,5.63
2018-11-28T01:00:43.407Z,5.61
2018-11-28T01:03:11.540Z,5.63
2018-11-28T01:05:39.676Z,5.65
2018-11-28T01:08:07.843Z,5.65
2018-11-28T01:10:36.018Z,5.63
2018-11-28T01:13:04.149Z,5.65
2018-11-28T01:15:32.312Z,5.67
2018-11-28T01:18:00.497Z,5.68
2018-11-28T01:20:28.669Z,5.69
2018-11-28T01:22:56.861Z,5.68
2018-11-28T01:25:25.003Z,5.67
2018-11-28T01:27:53.158Z,5.69
2018-11-28T01:30:22.328Z,5.69
2018-11-28T01:32:50.537Z,5.69
2018-11-28T01:35:19.516Z,5.69
2018-11-28T01:37:47.740Z,5.69
2018-11-28T01:40:20.876Z,5.72
2018-11-28T01:42:49.054Z,5.69
2018-11-28T01:45:19.176Z,5.69
2018-11-28T01:47:47.421Z,5.68
2018-11-28T01:50:16.492Z,5.68
2018-11-28T01:52:44.653Z,5.70
2018-11-28T01:55:17.756Z,5.71
2018-11-28T01:57:45.929Z,5.74
2018-11-28T02:00:20.398Z,5.75
2018-11-28T02:02:50.878Z,5.74
2018-11-28T02:05:19.064Z,5.71
2018-11-28T02:07:47.201Z,5.73
2018-11-28T02:10:16.072Z,5.74
2018-11-28T02:12:44.212Z,5.73
2018-11-28T02:15:15.421Z,5.73
2018-11-28T02:17:43.591Z,5.72
2018-11-28T02:20:12.802Z,5.70
2018-11-28T02:22:40.969Z,5.68
2018-11-28T02:25:11.412Z,5.66
2018-11-28T02:27:39.568Z,5.65
2018-11-28T02:30:11.463Z,5.65
2018-11-28T02:32:39.640Z,5.66
2018-11-28T02:35:09.327Z,5.67
2018-11-28T02:37:37.812Z,5.68
2018-11-28T02:40:07.837Z,5.69
2018-11-28T02:42:36.009Z,5.67
2018-11-28T02:45:05.821Z,5.69
2018-11-28T02:47:33.960Z,5.70
2018-11-28T02:50:02.114Z,5.72
2018-11-28T02:52:30.266Z,5.71
2018-11-28T02:54:58.451Z,5.69
2018-11-28T02:57:26.621Z,5.66
2018-11-28T02:59:54.766Z,5.68
2018-11-28T03:02:22.922Z,5.66
2018-11-28T03:04:51.091Z,5.70
2018-11-28T03:07:19.257Z,5.72
2018-11-28T03:09:47.406Z,5.72
2018-11-28T03:12:15.534Z,5.74
2018-11-28T03:14:43.694Z,5.75
2018-11-28T03:17:17.317Z,5.75
2018-11-28T03:19:45.482Z,5.75
2018-11-28T03:22:13.624Z,5.74
2018-11-28T03:24:41.765Z,5.76
2018-11-28T03:27:09.966Z,5.75
2018-11-28T03:29:38.157Z,5.77
2018-11-28T03:32:06.338Z,5.78
2018-11-28T03:34:34.469Z,5.77
2018-11-28T03:37:02.626Z,5.79
2018-11-28T03:39:30.825Z,5.77
2018-11-28T03:41:58.981Z,5.80
2018-11-28T03:44:27.138Z,5.79
2018-11-28T03:46:55.304Z,5.80
2018-11-28T03:49:23.461Z,5.82
2018-11-28T03:51:51.642Z,5.82
2018-11-28T03:54:19.795Z,5.84
2018-11-28T03:56:47.925Z,5.85
2018-11-28T03:59:16.073Z,5.86
2018-11-28T04:01:44.222Z,5.86
2018-11-28T04:04:12.370Z,5.84
2018-11-28T04:06:40.597Z,5.82
2018-11-28T04:09:08.883Z,5.77
2018-11-28T04:11:36.961Z,5.79
2018-11-28T04:14:05.150Z,5.79
2018-11-28T04:16:33.344Z,5.82
2018-11-28T04:19:04.496Z,5.84
2018-11-28T04:21:32.710Z,5.84
2018-11-28T04:24:01.137Z,5.83
2018-11-28T04:26:29.299Z,5.83
2018-11-28T04:28:57.477Z,5.85
2018-11-28T04:31:25.631Z,5.87
2018-11-28T04:33:53.833Z,5.88
2018-11-28T04:36:21.990Z,5.91
2018-11-28T04:38:50.136Z,5.90
2018-11-28T04:41:18.283Z,5.93
2018-11-28T04:43:46.453Z,5.90
2018-11-28T04:46:14.618Z,5.91
2018-11-28T04:48:42.768Z,5.93
2018-11-28T04:51:10.919Z,5.96
2018-11-28T04:53:39.086Z,5.94
2018-11-28T04:56:07.229Z,5.95
2018-11-28T04:58:35.409Z,5.96
2018-11-28T05:01:03.567Z,5.96
2018-11-28T05:03:31.734Z,5.94
2018-11-28T05:05:59.876Z,5.95
2018-11-28T05:08:28.070Z,5.97
2018-11-28T05:10:56.261Z,5.99
2018-11-28T05:13:24.673Z,5.97
2018-11-28T05:15:52.838Z,5.95
2018-11-28T05:18:20.988Z,5.98
2018-11-28T05:20:49.154Z,6.00
2018-11-28T05:23:17.422Z,6.01
2018-11-28T05:25:45.619Z,6.02
2018-11-28T05:28:14.557Z,6.04
2018-11-28T05:30:42.696Z,6.05
2018-11-28T05:33:11.010Z,6.06
2018-11-28T05:35:40.207Z,6.01
2018-11-28T05:38:12.101Z,6.04
2018-11-28T05:40:40.613Z,6.06
2018-11-28T05:43:08.850Z,6.08
2018-11-28T05:45:37.281Z,6.10
2018-11-28T05:48:05.849Z,6.15
2018-11-28T05:50:34.170Z,6.16
2018-11-28T05:53:02.382Z,6.15
2018-11-28T05:55:30.613Z,6.17
2018-11-28T05:57:58.788Z,6.19
2018-11-28T06:00:33.022Z,6.19
2018-11-28T06:03:01.190Z,6.19
2018-11-28T06:05:29.402Z,6.23
2018-11-28T06:07:57.589Z,6.25
2018-11-28T06:10:25.773Z,6.25
2018-11-28T06:12:53.926Z,6.23
2018-11-28T06:15:22.118Z,6.25
2018-11-28T06:17:50.365Z,6.26
2018-11-28T06:20:18.545Z,6.25
2018-11-28T06:22:46.762Z,6.25
2018-11-28T06:25:16.888Z,6.27
2018-11-28T06:27:44.363Z,6.30
2018-11-28T06:30:14.597Z,6.31
2018-11-28T06:32:43.717Z,6.32
2018-11-28T06:35:12.200Z,6.30
2018-11-28T06:37:40.775Z,6.28
2018-11-28T06:40:11.766Z,6.31
2018-11-28T06:42:40.025Z,6.26
2018-11-28T06:45:10.594Z,6.28
2018-11-28T06:47:38.793Z,6.28
2018-11-28T06:50:14.852Z,6.26
2018-11-28T06:52:43.959Z,6.22
2018-11-28T06:55:13.553Z,6.23
2018-11-28T06:57:42.440Z,6.24
2018-11-28T07:00:17.818Z,6.24
2018-11-28T07:02:46.375Z,6.24
2018-11-28T07:05:14.642Z,6.24
2018-11-28T07:07:49.773Z,6.22
2018-11-28T07:10:19.013Z,6.19
2018-11-28T07:12:47.188Z,6.23
2018-11-28T07:15:16.457Z,6.23
2018-11-28T07:17:44.944Z,6.23
2018-11-28T07:20:15.124Z,6.19
2018-11-28T07:22:43.350Z,6.23
2018-11-28T07:25:12.655Z,6.26
2018-11-28T07:27:45.021Z,6.26
2018-11-28T07:30:13.005Z,6.27
2018-11-28T07:32:41.244Z,6.30
2018-11-28T07:35:10.143Z,6.33
2018-11-28T07:37:38.733Z,6.34
2018-11-28T07:40:12.548Z,6.37
2018-11-28T07:42:41.420Z,6.37
2018-11-28T07:45:11.235Z,6.38
2018-11-28T07:47:39.422Z,6.42
2018-11-28T07:50:08.929Z,6.45
2018-11-28T07:52:37.477Z,6.46
2018-11-28T07:55:07.530Z,6.51
2018-11-28T07:57:35.812Z,6.53
2018-11-28T08:00:04.804Z,6.49
2018-11-28T08:02:33.053Z,6.50
2018-11-28T08:05:01.321Z,6.51
2018-11-28T08:07:29.523Z,6.55
2018-11-28T08:09:57.747Z,6.55
2018-11-28T08:12:25.985Z,6.56
2018-11-28T08:14:54.160Z,6.58
2018-11-28T08:17:22.373Z,6.63
2018-11-28T08:19:50.590Z,6.65
2018-11-28T08:22:19.704Z,6.68
2018-11-28T08:24:47.910Z,6.70
2018-11-28T08:27:16.097Z,6.70
2018-11-28T08:29:44.315Z,6.69
2018-11-28T08:32:12.458Z,6.76
2018-11-28T08:34:40.709Z,6.78
2018-11-28T08:37:08.937Z,6.83
2018-11-28T08:39:37.120Z,6.83
2018-11-28T08:42:06.209Z,6.81
2018-11-28T08:44:34.441Z,6.83
2018-11-28T08:47:02.752Z,6.83
2018-11-28T08:49:31.181Z,6.83
2018-11-28T08:51:59.365Z,6.86
2018-11-28T08:54:27.552Z,6.87
2018-11-28T08:56:56.294Z,6.90
2018-11-28T08:59:24.516Z,6.95
2018-11-28T09:01:52.770Z,6.92
2018-11-28T09:04:21.090Z,6.96
2018-11-28T09:06:49.426Z,6.98
2018-11-28T09:09:17.716Z,7.00
2018-11-28T09:11:46.025Z,7.03
2018-11-28T09:14:14.283Z,7.01
2018-11-28T09:16:42.557Z,7.06
2018-11-28T09:19:10.713Z,7.07
2018-11-28T09:21:38.977Z,7.11
2018-11-28T09:24:07.360Z,7.11
2018-11-28T09:26:35.569Z,7.14
2018-11-28T09:29:03.718Z,7.17
2018-11-28T09:31:31.912Z,7.16
2018-11-28T09:34:00.063Z,7.12
2018-11-28T09:36:28.671Z,7.15
2018-11-28T09:38:56.861Z,7.23
2018-11-28T09:41:25.157Z,7.26
2018-11-28T09:43:53.337Z,7.27
2018-11-28T09:46:21.566Z,7.28
2018-11-28T09:48:49.797Z,7.30
2018-11-28T09:51:18.014Z,7.35
2018-11-28T09:53:46.244Z,7.35
2018-11-28T09:56:14.506Z,7.41
2018-11-28T09:58:42.720Z,7.46
2018-11-28T10:01:10.922Z,7.53
2018-11-28T10:03:39.101Z,7.44
2018-11-28T10:06:07.348Z,7.48
2018-11-28T10:08:35.541Z,7.41
2018-11-28T10:11:03.704Z,7.45
2018-11-28T10:13:31.893Z,7.50
2018-11-28T10:16:01.536Z,7.51
2018-11-28T10:18:28.260Z,7.51
2018-11-28T10:20:56.400Z,7.53
2018-11-28T10:23:24.673Z,7.54
2018-11-28T10:25:53.479Z,7.51
2018-11-28T10:28:21.672Z,7.53
2018-11-28T10:30:49.972Z,7.57
2018-11-28T10:33:18.167Z,7.60
2018-11-28T10:35:46.664Z,7.62
2018-11-28T10:38:14.674Z,7.59
2018-11-28T10:40:42.956Z,7.59
2018-11-28T10:43:11.161Z,7.60
2018-11-28T10:45:39.386Z,7.63
2018-11-28T10:48:09.325Z,7.66
2018-11-28T10:50:37.603Z,7.66
2018-11-28T10:53:06.285Z,7.68
2018-11-28T10:55:34.519Z,7.69
2018-11-28T10:58:02.689Z,7.68
2018-11-28T11:00:36.584Z,7.71
2018-11-28T11:03:11.361Z,7.75
2018-11-28T11:05:45.018Z,7.79
2018-11-28T11:08:18.564Z,7.85
2018-11-28T11:10:52.029Z,7.89
2018-11-28T11:13:25.561Z,7.94
2018-11-28T11:15:58.737Z,7.99
2018-11-28T11:18:27.807Z,8.02
2018-11-28T11:20:56.417Z,8.08
2018-11-28T11:23:25.422Z,8.16
2018-11-28T11:26:01.216Z,8.16
2018-11-28T11:28:29.388Z,8.16
2018-11-28T11:30:58.565Z,8.20
2018-11-28T11:33:26.784Z,8.23
2018-11-28T11:35:54.951Z,8.28
2018-11-28T11:38:23.181Z,8.30
2018-11-28T11:40:52.121Z,8.29
2018-11-28T11:43:20.392Z,8.36
2018-11-28T11:45:52.331Z,8.40
2018-11-28T11:48:20.465Z,8.40
2018-11-28T11:50:49.330Z,8.40
2018-11-28T11:53:17.526Z,8.40
2018-11-28T11:55:45.778Z,8.44
2018-11-28T11:58:13.924Z,8.41
2018-11-28T12:00:43.518Z,8.42
2018-11-28T12:03:12.833Z,8.41
2018-11-28T12:05:42.549Z,8.44
2018-11-28T12:08:10.728Z,8.49
2018-11-28T12:10:39.010Z,8.41
2018-11-28T12:13:07.181Z,8.48
2018-11-28T12:15:35.820Z,8.49
2018-11-28T12:18:03.660Z,8.49
2018-11-28T12:20:44.849Z,8.52
2018-11-28T12:23:13.081Z,8.54
2018-11-28T12:25:41.268Z,8.58
2018-11-28T12:28:09.448Z,8.60
2018-11-28T12:30:37.698Z,8.63
2018-11-28T12:33:06.638Z,8.61
2018-11-28T12:35:34.881Z,8.65
2018-11-28T12:38:03.207Z,8.69
2018-11-28T12:40:32.633Z,8.68
2018-11-28T12:43:01.258Z,8.67
2018-11-28T12:45:29.452Z,8.66
2018-11-28T12:47:57.609Z,8.70
2018-11-28T12:50:28.721Z,8.72
2018-11-28T12:52:58.221Z,8.68
2018-11-28T12:55:26.433Z,8.68
2018-11-28T12:57:55.584Z,8.75
2018-11-28T13:00:24.996Z,8.78
2018-11-28T13:02:53.180Z,8.75
2018-11-28T13:05:22.561Z,8.83
2018-11-28T13:07:50.780Z,8.86
2018-11-28T13:10:20.217Z,8.93
2018-11-28T13:12:49.165Z,9.00
2018-11-28T13:15:18.222Z,9.05
2018-11-28T13:17:46.400Z,9.06
2018-11-28T13:20:15.582Z,9.06
2018-11-28T13:22:43.968Z,9.06
2018-11-28T13:25:14.300Z,9.06
2018-11-28T13:27:42.818Z,9.07
2018-11-28T13:30:15.069Z,9.05
2018-11-28T13:32:43.616Z,9.05
2018-11-28T13:35:12.856Z,9.04
2018-11-28T13:37:41.417Z,9.04
2018-11-28T13:40:11.842Z,9.08
2018-11-28T13:42:40.092Z,9.02
2018-11-28T13:45:13.442Z,9.01
2018-11-28T13:47:42.446Z,9.08
2018-11-28T13:50:11.061Z,9.07
2018-11-28T13:52:39.237Z,9.08
2018-11-28T13:57:41.546Z,8.99
2018-11-28T14:00:10.190Z,8.99
2018-11-28T14:02:38.597Z,8.95
2018-11-28T14:05:08.955Z,8.93
2018-11-28T14:07:37.087Z,8.89
2018-11-28T14:10:08.673Z,8.85
2018-11-28T14:12:36.924Z,8.89
2018-11-28T14:15:07.906Z,8.88
2018-11-28T14:17:36.065Z,8.89
2018-11-28T14:20:04.237Z,8.89
2018-11-28T14:22:32.388Z,8.84
2018-11-28T14:25:00.605Z,8.78
2018-11-28T14:27:28.784Z,8.79
2018-11-28T14:29:56.958Z,8.81
2018-11-28T14:32:25.090Z,8.78
2018-11-28T14:34:54.077Z,8.78
2018-11-28T14:37:22.316Z,8.77
2018-11-28T14:39:50.461Z,8.78
2018-11-28T14:42:18.601Z,8.80
2018-11-28T14:44:46.754Z,8.79
2018-11-28T14:47:14.884Z,8.77
2018-11-28T14:49:43.076Z,8.68
2018-11-28T14:52:11.281Z,8.68
2018-11-28T14:54:39.400Z,8.65
2018-11-28T14:57:07.565Z,8.66
2018-11-28T14:59:40.359Z,8.66
2018-11-28T15:02:03.949Z,8.65
2018-11-28T15:04:32.117Z,8.65
2018-11-28T15:07:01.463Z,8.63
2018-11-28T15:09:36.437Z,8.65
2018-11-28T15:12:11.598Z,8.63
2018-11-28T15:14:35.744Z,8.64
2018-11-28T15:17:03.913Z,8.56
2018-11-28T15:19:32.107Z,8.57
2018-11-28T15:22:00.281Z,8.56
2018-11-28T15:24:28.478Z,8.51
2018-11-28T15:26:56.633Z,8.51
2018-11-28T15:29:24.813Z,8.50
2018-11-28T15:31:53.017Z,8.52
2018-11-28T15:34:21.218Z,8.52
2018-11-28T15:36:49.360Z,8.49
2018-11-28T15:39:17.509Z,8.52
2018-11-28T15:41:45.659Z,8.54
2018-11-28T15:44:13.865Z,8.55
2018-11-28T15:46:42.105Z,8.53
2018-11-28T15:49:10.256Z,8.51
2018-11-28T15:51:38.409Z,8.48
2018-11-28T15:54:06.633Z,8.45
2018-11-28T15:56:34.821Z,8.51
2018-11-28T15:59:02.982Z,8.45
2018-11-28T16:01:31.145Z,8.41
2018-11-28T16:03:59.289Z,8.45
2018-11-28T16:06:27.446Z,8.41
2018-11-28T16:08:55.638Z,8.36
2018-11-28T16:11:24.450Z,8.35
2018-11-28T16:13:52.628Z,8.30
2018-11-28T16:16:20.764Z,8.28
2018-11-28T16:18:49.028Z,8.28
2018-11-28T16:21:17.277Z,8.29
2018-11-28T16:23:45.461Z,8.23
2018-11-28T16:26:13.661Z,8.10
2018-11-28T16:28:41.823Z,8.09
2018-11-28T16:31:09.995Z,8.10
2018-11-28T16:33:38.140Z,8.12
2018-11-28T16:36:06.337Z,8.10
2018-11-28T16:38:34.468Z,8.02
2018-11-28T16:41:02.617Z,8.06
2018-11-28T16:43:30.810Z,8.04
2018-11-28T16:45:58.993Z,8.02
2018-11-28T16:48:27.164Z,7.99
2018-11-28T16:50:55.316Z,7.99
2018-11-28T16:53:23.477Z,8.00
2018-11-28T16:55:51.683Z,8.01
2018-11-28T16:58:19.853Z,8.01
2018-11-28T17:00:47.988Z,8.02
2018-11-28T17:03:16.236Z,8.04
2018-11-28T17:05:44.379Z,8.02
2018-11-28T17:08:12.592Z,8.02
2018-11-28T17:10:40.776Z,8.01
2018-11-28T17:13:08.936Z,7.95
2018-11-28T17:15:37.074Z,7.96
2018-11-28T17:18:06.057Z,7.96
2018-11-28T17:20:34.211Z,7.96
2018-11-28T17:23:02.438Z,7.99
2018-11-28T17:25:32.185Z,7.97
2018-11-28T17:28:00.481Z,7.96
2018-11-28T17:30:30.746Z,7.96
2018-11-28T17:32:58.942Z,7.96
2018-11-28T17:35:27.076Z,7.97
2018-11-28T17:37:55.229Z,7.97
2018-11-28T17:40:27.497Z,7.93
2018-11-28T17:42:57.825Z,7.92
2018-11-28T17:45:26.390Z,7.92
2018-11-28T17:47:54.580Z,7.88
2018-11-28T17:50:23.859Z,7.86
2018-11-28T17:53:10.163Z,7.82
2018-11-28T17:55:43.418Z,7.82
2018-11-28T17:58:10.910Z,7.84
2018-11-28T18:00:39.208Z,7.83
2018-11-28T18:03:07.397Z,7.83
2018-11-28T18:05:35.556Z,7.85
2018-11-28T18:08:03.725Z,7.83
2018-11-28T18:10:31.973Z,7.86
2018-11-28T18:13:07.753Z,7.84
2018-11-28T18:15:35.892Z,7.82
2018-11-28T18:18:04.550Z,7.82
2018-11-28T18:20:32.715Z,7.82
2018-11-28T18:23:00.878Z,7.86
2018-11-28T18:25:30.442Z,7.86
2018-11-28T18:27:58.580Z,7.86
2018-11-28T18:30:26.750Z,7.86
2018-11-28T18:32:55.009Z,7.87
2018-11-28T18:35:23.164Z,7.88
2018-11-28T18:37:51.328Z,7.84
2018-11-28T18:40:19.545Z,7.81
2018-11-28T18:42:47.709Z,7.83
2018-11-28T18:45:20.528Z,7.79
2018-11-28T18:47:48.908Z,7.80
2018-11-28T18:50:17.221Z,7.81
2018-11-28T18:52:45.386Z,7.83
2018-11-28T18:55:16.718Z,7.85
2018-11-28T18:57:43.115Z,7.90
2018-11-28T19:00:13.717Z,7.91
2018-11-28T19:02:42.748Z,7.88
2018-11-28T19:05:10.257Z,7.89
2018-11-28T19:07:38.404Z,7.93
2018-11-28T19:10:09.661Z,7.94
2018-11-28T19:12:37.825Z,7.96
2018-11-28T19:15:09.073Z,7.95
2018-11-28T19:17:37.254Z,7.85
2018-11-28T19:20:08.293Z,7.86
2018-11-28T19:22:36.437Z,7.88
2018-11-28T19:25:06.564Z,7.90
2018-11-28T19:27:34.728Z,7.94
2018-11-28T19:30:02.952Z,7.98
2018-11-28T19:32:31.183Z,7.94
2018-11-28T19:34:59.353Z,7.96
2018-11-28T19:37:27.494Z,7.98
2018-11-28T19:39:55.659Z,7.99
2018-11-28T19:42:23.852Z,7.98
2018-11-28T19:44:52.126Z,7.99
2018-11-28T19:47:20.241Z,7.96
2018-11-28T19:49:48.393Z,7.94
2018-11-28T19:52:16.624Z,7.91
2018-11-28T19:54:44.814Z,7.93
2018-11-28T19:57:12.976Z,7.95
2018-11-28T19:59:41.250Z,7.93
2018-11-28T20:02:09.433Z,7.97
2018-11-28T20:04:37.609Z,7.95
2018-11-28T20:07:06.062Z,7.97
2018-11-28T20:09:34.290Z,7.95
2018-11-28T20:12:02.452Z,7.94
2018-11-28T20:14:30.652Z,7.96
2018-11-28T20:16:58.998Z,7.96
2018-11-28T20:19:27.482Z,7.93
2018-11-28T20:21:55.669Z,7.94
2018-11-28T20:24:23.862Z,7.93
2018-11-28T20:26:52.066Z,7.96
2018-11-28T20:29:20.390Z,8.00
2018-11-28T20:31:48.709Z,8.01
2018-11-28T20:34:18.001Z,8.04
2018-11-28T20:36:47.008Z,8.02
2018-11-28T20:39:15.594Z,8.01
2018-11-28T20:41:44.435Z,8.03
2018-11-28T20:44:12.818Z,8.01
2018-11-28T20:46:41.463Z,7.99
2018-11-28T20:49:09.839Z,7.95
2018-11-28T20:51:38.422Z,7.95
2018-11-28T20:54:07.147Z,7.95
2018-11-28T20:56:36.432Z,7.94
2018-11-28T20:59:05.474Z,7.96
2018-11-28T21:01:33.777Z,7.99
2018-11-28T21:04:01.967Z,8.01
2018-11-28T21:06:30.118Z,8.03
2018-11-28T21:08:58.297Z,8.06
2018-11-28T21:11:26.440Z,8.05
2018-11-28T21:13:54.593Z,8.01
2018-11-28T21:16:22.749Z,8.02
2018-11-28T21:18:50.905Z,8.05
2018-11-28T21:21:19.064Z,8.07
2018-11-28T21:23:47.213Z,8.07
2018-11-28T21:26:15.386Z,8.06
2018-11-28T21:28:43.589Z,8.04
2018-11-28T21:31:11.767Z,8.09
2018-11-28T21:33:39.994Z,8.10
2018-11-28T21:36:08.336Z,8.10
2018-11-28T21:38:36.453Z,8.12
2018-11-28T21:41:04.923Z,8.08
2018-11-28T21:43:33.086Z,8.04
2018-11-28T21:46:01.303Z,8.08
2018-11-28T21:48:29.470Z,8.08
2018-11-28T21:50:57.626Z,8.13
2018-11-28T21:53:25.849Z,8.13
2018-11-28T21:55:54.036Z,8.14
2018-11-28T21:58:22.188Z,8.12
2018-11-28T22:00:50.334Z,8.14
2018-11-28T22:03:18.472Z,8.16
2018-11-28T22:05:46.682Z,8.18
2018-11-28T22:08:14.888Z,8.19
2018-11-28T22:10:43.024Z,8.19
2018-11-28T22:13:11.181Z,8.23
2018-11-28T22:15:39.333Z,8.24
2018-11-28T22:18:07.554Z,8.27
2018-11-28T22:20:35.708Z,8.23
2018-11-28T22:23:03.870Z,8.26
2018-11-28T22:25:32.113Z,8.24
2018-11-28T22:28:00.251Z,8.25
2018-11-28T22:30:29.060Z,8.27
2018-11-28T22:32:57.817Z,8.31
2018-11-28T22:35:26.053Z,8.32
2018-11-28T22:37:54.228Z,8.34
2018-11-28T22:40:25.481Z,8.36
2018-11-28T22:42:53.629Z,8.35
2018-11-28T22:45:29.713Z,8.35
2018-11-28T22:47:57.860Z,8.37
2018-11-28T22:50:26.017Z,8.39
2018-11-28T22:52:54.180Z,8.34
2018-11-28T22:55:22.332Z,8.37
2018-11-28T22:57:50.495Z,8.40
2018-11-28T23:00:24.879Z,8.40
2018-11-28T23:03:05.838Z,8.41
2018-11-28T23:05:37.921Z,8.42
2018-11-28T23:08:08.057Z,8.46
2018-11-28T23:10:36.829Z,8.49
2018-11-28T23:13:05.401Z,8.46
2018-11-28T23:15:33.630Z,8.38
2018-11-28T23:18:01.797Z,8.45
2018-11-28T23:20:29.977Z,8.46
2018-11-28T23:22:58.105Z,8.49
2018-11-28T23:25:26.293Z,8.49
2018-11-28T23:27:54.508Z,8.52
2018-11-28T23:30:29.334Z,8.52
2018-11-28T23:32:57.517Z,8.51
2018-11-28T23:35:25.738Z,8.54
2018-11-28T23:37:53.909Z,8.55
2018-11-28T23:40:22.865Z,8.53
2018-11-28T23:42:51.622Z,8.53
2018-11-28T23:45:19.805Z,8.53
2018-11-28T23:47:48.131Z,8.50
2018-11-28T23:50:18.109Z,8.49
2018-11-28T23:52:46.637Z,8.49
2018-11-28T23:55:30.768Z,8.48
2018-11-28T23:57:58.907Z,8.51
